createdAt,value
2018-01-18T00:01:37.217Z,1.75
2018-01-18T00:04:04.826Z,2.30
2018-01-18T00:06:32.358Z,1.80
2018-01-18T00:09:00.633Z,2.30
2018-01-18T00:11:28.943Z,1.70
2018-01-18T00:13:56.462Z,2.20
2018-01-18T00:16:24.776Z,1.95
2018-01-18T00:18:52.297Z,1.92
2018-01-18T00:21:19.816Z,3.40
2018-01-18T00:23:47.354Z,2.60
2018-01-18T00:26:14.926Z,3.22
2018-01-18T00:28:42.469Z,2.30
2018-01-18T00:31:10.049Z,5.18
2018-01-18T00:33:37.597Z,3.00
2018-01-18T00:36:05.115Z,3.00
2018-01-18T00:38:32.637Z,2.00
2018-01-18T00:41:00.173Z,2.67
2018-01-18T00:43:27.753Z,5.40
2018-01-18T00:45:55.312Z,3.87
2018-01-18T00:48:22.831Z,2.90
2018-01-18T00:50:51.140Z,3.53
2018-01-18T00:53:18.653Z,4.43
2018-01-18T00:55:46.199Z,3.33
2018-01-18T00:58:13.723Z,4.25
2018-01-18T01:00:41.262Z,4.32
2018-01-18T01:03:09.572Z,3.25
2018-01-18T01:05:37.088Z,5.35
2018-01-18T01:08:04.630Z,2.53
2018-01-18T01:10:32.150Z,2.60
2018-01-18T01:12:59.718Z,3.95
2018-01-18T01:15:27.236Z,4.00
2018-01-18T01:17:55.542Z,3.03
2018-01-18T01:20:23.126Z,6.55
2018-01-18T01:22:50.669Z,2.70
2018-01-18T01:25:18.185Z,4.53
2018-01-18T01:27:47.229Z,6.72
2018-01-18T01:30:14.745Z,3.95
2018-01-18T01:32:43.069Z,3.00
2018-01-18T01:35:10.585Z,3.85
2018-01-18T01:37:38.873Z,3.75
2018-01-18T01:40:07.174Z,3.30
2018-01-18T01:42:34.750Z,3.80
2018-01-18T01:45:02.289Z,2.90
2018-01-18T01:47:29.802Z,3.20
2018-01-18T01:49:57.342Z,6.95
2018-01-18T01:52:24.853Z,2.72
2018-01-18T01:54:53.159Z,2.60
2018-01-18T01:57:20.733Z,3.78
2018-01-18T01:59:48.293Z,2.92
2018-01-18T02:02:15.853Z,2.00
2018-01-18T02:04:43.413Z,2.35
2018-01-18T02:07:10.972Z,3.40
2018-01-18T02:09:38.538Z,1.92
2018-01-18T02:12:06.073Z,2.72
2018-01-18T02:14:33.594Z,2.78
2018-01-18T02:17:01.126Z,2.37
2018-01-18T02:19:28.644Z,1.67
2018-01-18T02:21:56.950Z,3.22
2018-01-18T02:24:24.473Z,2.37
2018-01-18T02:26:52.786Z,2.22
2018-01-18T02:29:20.345Z,2.80
2018-01-18T02:31:47.864Z,1.55
2018-01-18T02:34:16.165Z,2.90
2018-01-18T02:36:43.686Z,2.90
2018-01-18T02:39:11.317Z,2.10
2018-01-18T02:41:38.873Z,1.73
2018-01-18T02:44:06.437Z,1.83
2018-01-18T02:46:33.953Z,2.30
2018-01-18T02:49:02.261Z,2.30
2018-01-18T02:51:29.776Z,1.55
2018-01-18T02:53:57.314Z,2.37
2018-01-18T02:56:24.831Z,1.95
2018-01-18T02:58:52.373Z,2.47
2018-01-18T03:01:20.653Z,1.62
2018-01-18T03:03:48.932Z,1.90
2018-01-18T03:06:17.242Z,2.20
2018-01-18T03:08:44.762Z,1.70
2018-01-18T03:11:13.067Z,2.10
2018-01-18T03:13:40.593Z,1.83
2018-01-18T03:16:08.125Z,2.10
2018-01-18T03:18:35.666Z,2.05
2018-01-18T03:21:03.201Z,1.95
2018-01-18T03:23:30.716Z,2.83
2018-01-18T03:25:58.250Z,2.08
2018-01-18T03:28:25.765Z,3.92
2018-01-18T03:30:54.185Z,2.08
2018-01-18T03:33:21.707Z,2.10
2018-01-18T03:35:50.019Z,2.33
2018-01-18T03:38:17.562Z,1.80
2018-01-18T03:40:45.078Z,2.22
2018-01-18T03:43:12.613Z,1.70
2018-01-18T03:45:40.129Z,1.65
2018-01-18T03:48:08.426Z,1.65
2018-01-18T03:50:35.945Z,2.25
2018-01-18T03:53:03.565Z,1.50
2018-01-18T03:55:31.125Z,2.70
2018-01-18T03:57:58.665Z,1.73
2018-01-18T04:00:26.248Z,3.10
2018-01-18T04:02:53.782Z,1.90
2018-01-18T04:05:21.369Z,2.25
2018-01-18T04:07:48.934Z,1.73
2018-01-18T04:10:16.450Z,2.45
2018-01-18T04:12:44.733Z,2.20
2018-01-18T04:15:13.030Z,2.42
2018-01-18T04:17:40.549Z,2.33
2018-01-18T04:20:08.082Z,1.90
2018-01-18T04:22:35.599Z,2.67
2018-01-18T04:25:03.896Z,2.30
2018-01-18T04:27:31.410Z,1.80
2018-01-18T04:29:58.944Z,2.35
2018-01-18T04:32:26.460Z,1.90
2018-01-18T04:34:54.765Z,2.40
2018-01-18T04:37:22.325Z,2.22
2018-01-18T04:39:49.862Z,2.00
2018-01-18T04:42:18.174Z,2.55
2018-01-18T04:44:45.689Z,2.95
2018-01-18T04:47:13.989Z,2.83
2018-01-18T04:49:41.576Z,2.45
2018-01-18T04:52:09.107Z,2.85
2018-01-18T04:54:36.619Z,3.20
2018-01-18T04:57:04.150Z,2.58
2018-01-18T04:59:31.664Z,2.00
2018-01-18T05:01:59.205Z,2.33
2018-01-18T05:04:26.722Z,2.92
2018-01-18T05:06:54.288Z,2.90
2018-01-18T05:09:21.805Z,2.97
2018-01-18T05:11:49.344Z,2.95
2018-01-18T05:14:16.857Z,2.75
2018-01-18T05:16:44.374Z,2.90
2018-01-18T05:19:11.905Z,1.90
2018-01-18T05:21:39.426Z,2.85
2018-01-18T05:24:08.055Z,2.90
2018-01-18T05:26:35.568Z,3.03
2018-01-18T05:29:03.875Z,2.40
2018-01-18T05:31:31.450Z,2.87
2018-01-18T05:33:59.009Z,3.22
2018-01-18T05:36:26.516Z,3.05
2018-01-18T05:38:54.059Z,2.95
2018-01-18T05:41:21.578Z,3.00
2018-01-18T05:43:49.109Z,2.78
2018-01-18T05:46:17.429Z,2.10
2018-01-18T05:48:44.973Z,3.00
2018-01-18T05:51:12.489Z,2.65
2018-01-18T05:53:40.008Z,2.47
2018-01-18T05:56:07.542Z,3.62
2018-01-18T05:58:35.850Z,2.60
2018-01-18T06:01:03.380Z,3.60
2018-01-18T06:03:31.656Z,3.33
2018-01-18T06:05:59.954Z,2.62
2018-01-18T06:08:27.535Z,3.20
2018-01-18T06:10:55.068Z,2.28
2018-01-18T06:13:22.587Z,2.53
2018-01-18T06:15:50.127Z,3.42
2018-01-18T06:18:17.639Z,2.70
2018-01-18T06:20:45.918Z,2.30
2018-01-18T06:23:14.218Z,2.17
2018-01-18T06:25:41.785Z,3.00
2018-01-18T06:28:10.057Z,1.98
2018-01-18T06:30:37.577Z,5.60
2018-01-18T06:33:07.683Z,4.68
2018-01-18T06:35:35.194Z,4.50
2018-01-18T06:38:02.762Z,2.97
2018-01-18T06:40:30.322Z,2.08
2018-01-18T06:42:57.861Z,2.15
2018-01-18T06:45:25.374Z,1.83
2018-01-18T06:47:52.886Z,2.22
2018-01-18T06:50:20.421Z,2.20
2018-01-18T06:52:48.700Z,2.15
2018-01-18T06:55:17.004Z,1.70
2018-01-18T06:57:44.518Z,1.40
2018-01-18T07:00:12.100Z,1.60
2018-01-18T07:02:39.597Z,0.80
2018-01-18T07:05:07.133Z,1.50
2018-01-18T07:07:35.416Z,1.30
2018-01-18T07:10:02.951Z,1.42
2018-01-18T07:12:30.468Z,1.58
2018-01-18T07:14:58.013Z,1.25
2018-01-18T07:17:25.525Z,1.12
2018-01-18T07:19:53.061Z,2.05
2018-01-18T07:22:20.588Z,1.60
2018-01-18T07:24:48.126Z,3.05
2018-01-18T07:27:16.411Z,1.60
2018-01-18T07:29:43.979Z,1.58
2018-01-18T07:32:12.258Z,1.40
2018-01-18T07:34:39.774Z,1.65
2018-01-18T07:37:07.309Z,1.23
2018-01-18T07:39:35.592Z,1.95
2018-01-18T07:42:03.124Z,1.55
2018-01-18T07:44:30.638Z,2.03
2018-01-18T07:46:58.171Z,1.55
2018-01-18T07:49:25.686Z,1.30
2018-01-18T07:51:53.225Z,1.20
2018-01-18T07:54:21.511Z,1.40
2018-01-18T07:56:55.418Z,1.25
2018-01-18T07:59:23.706Z,1.42
2018-01-18T08:01:51.217Z,1.25
2018-01-18T08:04:33.561Z,1.10
2018-01-18T08:07:01.865Z,0.62
2018-01-18T08:09:29.382Z,0.80
2018-01-18T08:11:57.673Z,1.00
2018-01-18T08:14:25.973Z,0.93
2018-01-18T08:16:53.490Z,1.00
2018-01-18T08:19:21.021Z,0.93
2018-01-18T08:21:48.542Z,0.85
2018-01-18T08:24:16.074Z,0.70
2018-01-18T08:26:43.589Z,0.65
2018-01-18T08:29:11.122Z,1.00
2018-01-18T08:31:38.661Z,1.98
2018-01-18T08:34:06.960Z,2.60
2018-01-18T08:36:34.478Z,2.10
2018-01-18T08:39:02.005Z,1.20
2018-01-18T08:41:29.517Z,1.85
2018-01-18T08:43:57.818Z,1.42
2018-01-18T08:46:25.341Z,5.53
2018-01-18T08:48:52.887Z,1.20
2018-01-18T08:51:20.415Z,2.30
2018-01-18T08:53:47.926Z,0.90
2018-01-18T08:56:15.459Z,1.20
2018-01-18T08:58:42.981Z,0.98
2018-01-18T09:01:10.523Z,0.90
2018-01-18T09:03:38.800Z,0.60
2018-01-18T09:06:07.122Z,0.90
2018-01-18T09:08:34.636Z,0.52
2018-01-18T09:11:02.933Z,0.60
2018-01-18T09:13:30.456Z,0.50
2018-01-18T09:15:58.773Z,0.50
2018-01-18T09:18:26.296Z,0.50
2018-01-18T09:20:54.581Z,0.55
2018-01-18T09:23:22.886Z,0.55
2018-01-18T09:25:50.407Z,0.40
2018-01-18T09:28:17.945Z,0.40
2018-01-18T09:30:45.470Z,0.57
2018-01-18T09:33:13.017Z,1.60
2018-01-18T09:35:40.541Z,1.10
2018-01-18T09:38:08.077Z,0.50
2018-01-18T09:40:35.601Z,0.50
2018-01-18T09:43:03.187Z,0.60
2018-01-18T09:45:31.469Z,1.05
2018-01-18T09:47:58.981Z,0.93
2018-01-18T09:50:27.278Z,0.45
2018-01-18T09:52:56.599Z,0.43
2018-01-18T09:55:24.139Z,0.63
2018-01-18T09:57:53.335Z,0.30
2018-01-18T10:00:20.898Z,0.40
2018-01-18T10:02:48.416Z,0.50
2018-01-18T10:05:15.954Z,0.40
2018-01-18T10:07:43.466Z,0.30
2018-01-18T10:10:10.999Z,0.50
2018-01-18T10:12:38.509Z,0.30
2018-01-18T10:15:06.042Z,0.70
2018-01-18T10:17:33.559Z,0.97
2018-01-18T10:20:01.097Z,0.63
2018-01-18T10:22:28.645Z,0.53
2018-01-18T10:24:56.161Z,0.40
2018-01-18T10:27:24.466Z,0.47
2018-01-18T10:29:51.982Z,0.30
2018-01-18T10:32:19.523Z,0.57
2018-01-18T10:34:47.045Z,0.40
2018-01-18T10:37:14.582Z,0.60
2018-01-18T10:39:42.880Z,1.00
2018-01-18T10:42:10.423Z,0.80
2018-01-18T10:44:38.720Z,0.50
2018-01-18T10:47:06.256Z,0.50
2018-01-18T10:49:34.569Z,0.57
2018-01-18T10:52:02.106Z,0.60
2018-01-18T10:54:30.381Z,0.67
2018-01-18T10:56:58.691Z,0.53
2018-01-18T10:59:26.208Z,0.50
2018-01-18T11:01:54.510Z,0.53
2018-01-18T11:04:22.017Z,1.10
2018-01-18T11:06:49.552Z,1.70
2018-01-18T11:09:17.070Z,1.80
2018-01-18T11:11:45.351Z,0.70
2018-01-18T11:14:13.649Z,0.90
2018-01-18T11:16:41.160Z,0.77
2018-01-18T11:19:08.702Z,0.50
2018-01-18T11:21:36.220Z,0.67
2018-01-18T11:24:03.755Z,0.70
2018-01-18T11:26:32.039Z,0.40
2018-01-18T11:29:00.336Z,0.67
2018-01-18T11:31:27.842Z,0.63
2018-01-18T11:33:55.388Z,0.60
2018-01-18T11:36:22.902Z,0.50
2018-01-18T11:38:51.181Z,0.60
2018-01-18T11:41:18.725Z,0.50
2018-01-18T11:43:47.004Z,0.43
2018-01-18T11:46:15.841Z,0.60
2018-01-18T11:48:43.361Z,0.40
2018-01-18T11:51:11.658Z,0.30
2018-01-18T11:53:39.173Z,0.60
2018-01-18T11:56:06.705Z,1.13
2018-01-18T11:58:34.225Z,2.80
2018-01-18T12:01:01.758Z,0.50
2018-01-18T12:03:29.273Z,0.57
2018-01-18T12:05:56.808Z,0.70
2018-01-18T12:08:24.325Z,0.60
2018-01-18T12:10:51.834Z,0.60
2018-01-18T12:13:19.376Z,0.60
2018-01-18T12:15:47.658Z,0.93
2018-01-18T12:18:15.193Z,0.80
2018-01-18T12:20:43.486Z,0.90
2018-01-18T12:23:11.783Z,0.40
2018-01-18T12:25:39.302Z,1.13
2018-01-18T12:28:07.419Z,1.20
2018-01-18T12:30:34.959Z,1.00
2018-01-18T12:33:03.262Z,2.77
2018-01-18T12:35:30.777Z,3.00
2018-01-18T12:37:58.330Z,1.43
2018-01-18T12:40:25.841Z,2.07
2018-01-18T12:42:53.354Z,1.67
2018-01-18T12:45:20.886Z,1.00
2018-01-18T12:47:48.402Z,1.60
2018-01-18T12:50:15.938Z,1.87
2018-01-18T12:52:43.446Z,2.20
2018-01-18T12:55:10.979Z,2.53
2018-01-18T12:57:39.256Z,2.23
2018-01-18T13:00:07.550Z,2.40
2018-01-18T13:02:35.063Z,1.40
2018-01-18T13:05:02.598Z,1.60
2018-01-18T13:07:30.882Z,1.70
2018-01-18T13:09:58.429Z,2.37
2018-01-18T13:12:25.945Z,2.40
2018-01-18T13:14:54.262Z,3.63
2018-01-18T13:17:21.787Z,3.63
2018-01-18T13:19:50.070Z,2.87
2018-01-18T13:22:18.373Z,2.80
2018-01-18T13:24:45.930Z,1.70
2018-01-18T13:27:13.465Z,2.50
2018-01-18T13:29:41.745Z,2.63
2018-01-18T13:32:10.043Z,2.33
2018-01-18T13:34:37.554Z,2.57
2018-01-18T13:37:05.082Z,2.00
2018-01-18T13:39:32.598Z,2.30
2018-01-18T13:42:00.126Z,3.10
2018-01-18T13:44:27.665Z,1.30
2018-01-18T13:46:55.177Z,0.90
2018-01-18T13:49:23.473Z,1.70
2018-01-18T13:51:50.987Z,1.73
2018-01-18T13:54:18.528Z,2.80
2018-01-18T13:56:46.041Z,3.50
2018-01-18T13:59:13.586Z,7.97
2018-01-18T14:01:41.877Z,1.80
2018-01-18T14:04:09.390Z,1.77
2018-01-18T14:06:36.926Z,1.67
2018-01-18T14:09:04.445Z,1.67
2018-01-18T14:11:32.741Z,1.47
2018-01-18T14:14:00.253Z,1.13
2018-01-18T14:16:28.571Z,1.03
2018-01-18T14:18:56.082Z,1.27
2018-01-18T14:21:23.618Z,1.20
2018-01-18T14:23:51.138Z,0.93
2018-01-18T14:26:27.218Z,1.80
2018-01-18T14:28:55.466Z,1.93
2018-01-18T14:31:23.772Z,2.13
2018-01-18T14:33:51.287Z,1.10
2018-01-18T14:36:18.831Z,1.13
2018-01-18T14:38:47.114Z,2.03
2018-01-18T14:41:14.622Z,0.93
2018-01-18T14:43:42.155Z,0.90
2018-01-18T14:46:10.437Z,1.50
2018-01-18T14:48:38.738Z,0.77
2018-01-18T14:51:06.259Z,1.57
2018-01-18T14:53:33.792Z,1.83
2018-01-18T14:56:01.307Z,1.97
2018-01-18T14:58:28.850Z,2.40
2018-01-18T15:00:57.134Z,1.87
2018-01-18T15:03:25.408Z,1.80
2018-01-18T15:05:53.704Z,1.70
2018-01-18T15:08:21.214Z,1.73
2018-01-18T15:10:48.755Z,1.23
2018-01-18T15:13:16.287Z,0.70
2018-01-18T15:15:43.822Z,1.10
2018-01-18T15:18:12.101Z,1.17
2018-01-18T15:20:40.401Z,0.93
2018-01-18T15:23:07.921Z,0.80
2018-01-18T15:25:35.716Z,0.70
2018-01-18T15:28:05.185Z,0.97
2018-01-18T15:30:32.725Z,1.50
2018-01-18T15:33:00.237Z,1.37
2018-01-18T15:35:28.514Z,1.67
2018-01-18T15:37:56.805Z,2.10
2018-01-18T15:40:24.322Z,1.80
2018-01-18T15:42:51.849Z,1.20
2018-01-18T15:45:19.409Z,1.10
2018-01-18T15:47:46.937Z,1.20
2018-01-18T15:50:14.455Z,0.97
2018-01-18T15:52:41.991Z,1.20
2018-01-18T15:55:09.505Z,0.90
2018-01-18T15:57:37.801Z,1.40
2018-01-18T16:00:05.322Z,1.00
2018-01-18T16:02:32.875Z,1.50
2018-01-18T16:05:00.392Z,1.10
2018-01-18T16:07:27.902Z,1.00
2018-01-18T16:09:55.436Z,1.40
2018-01-18T16:12:22.945Z,0.70
2018-01-18T16:14:51.240Z,1.43
2018-01-18T16:17:18.763Z,0.60
2018-01-18T16:19:47.071Z,1.27
2018-01-18T16:22:14.586Z,1.30
2018-01-18T16:24:42.117Z,1.20
2018-01-18T16:27:09.630Z,0.60
2018-01-18T16:29:37.933Z,0.77
2018-01-18T16:32:05.451Z,1.63
2018-01-18T16:34:32.998Z,2.60
2018-01-18T16:37:00.522Z,2.17
2018-01-18T16:39:28.033Z,3.57
2018-01-18T16:41:55.912Z,3.83
2018-01-18T16:44:24.205Z,2.20
2018-01-18T16:46:51.742Z,1.47
2018-01-18T16:49:19.252Z,2.77
2018-01-18T16:51:46.782Z,3.47
2018-01-18T16:54:14.301Z,6.30
2018-01-18T16:56:41.835Z,3.50
2018-01-18T16:59:09.349Z,2.27
2018-01-18T17:01:37.657Z,1.67
2018-01-18T17:04:05.172Z,1.90
2018-01-18T17:06:32.712Z,1.93
2018-01-18T17:09:00.226Z,1.10
2018-01-18T17:11:27.745Z,1.70
2018-01-18T17:13:55.277Z,1.93
2018-01-18T17:16:22.789Z,1.90
2018-01-18T17:18:51.086Z,1.03
2018-01-18T17:21:18.601Z,1.23
2018-01-18T17:23:46.128Z,1.47
2018-01-18T17:26:13.632Z,1.80
2018-01-18T17:28:41.166Z,1.10
2018-01-18T17:31:08.688Z,0.73
2018-01-18T17:33:36.216Z,2.20
2018-01-18T17:36:04.498Z,1.40
2018-01-18T17:38:32.793Z,1.67
2018-01-18T17:41:00.307Z,1.60
2018-01-18T17:43:27.842Z,3.33
2018-01-18T17:45:55.349Z,2.00
2018-01-18T17:48:23.653Z,2.20
2018-01-18T17:50:51.169Z,6.20
2018-01-18T17:53:18.682Z,2.97
2018-01-18T17:55:46.213Z,2.70
2018-01-18T17:58:14.495Z,8.13
2018-01-18T18:00:42.029Z,2.47
2018-01-18T18:03:09.546Z,2.07
2018-01-18T18:05:37.074Z,4.23
2018-01-18T18:08:04.601Z,20.70
2018-01-18T18:10:32.141Z,5.10
2018-01-18T18:12:59.662Z,7.17
2018-01-18T18:15:27.190Z,4.83
2018-01-18T18:17:54.712Z,4.70
2018-01-18T18:20:22.276Z,8.10
2018-01-18T18:22:49.793Z,2.87
2018-01-18T18:25:17.302Z,3.30
2018-01-18T18:27:44.892Z,4.62
2018-01-18T18:30:13.176Z,8.32
2018-01-18T18:32:41.469Z,4.70
2018-01-18T18:35:08.981Z,2.80
2018-01-18T18:37:36.516Z,4.45
2018-01-18T18:40:04.042Z,3.27
2018-01-18T18:42:32.342Z,3.27
2018-01-18T18:44:59.857Z,4.47
2018-01-18T18:47:27.396Z,5.00
2018-01-18T18:49:54.924Z,3.95
2018-01-18T18:52:22.472Z,4.22
2018-01-18T18:54:50.009Z,4.85
2018-01-18T18:57:18.310Z,8.10
2018-01-18T18:59:45.884Z,8.60
2018-01-18T19:02:13.406Z,3.75
2018-01-18T19:04:41.707Z,2.93
2018-01-18T19:07:09.235Z,2.00
2018-01-18T19:09:37.546Z,2.30
2018-01-18T19:12:05.112Z,3.00
2018-01-18T19:14:32.702Z,2.50
2018-01-18T19:17:00.264Z,3.00
2018-01-18T19:19:27.838Z,3.08
2018-01-18T19:21:55.373Z,3.08
2018-01-18T19:24:22.889Z,2.40
2018-01-18T19:26:50.429Z,3.28
2018-01-18T19:29:17.950Z,3.30
2018-01-18T19:31:45.486Z,3.00
2018-01-18T19:34:13.012Z,2.87
2018-01-18T19:36:41.376Z,3.75
2018-01-18T19:39:08.898Z,2.77
2018-01-18T19:41:36.441Z,3.22
2018-01-18T19:44:04.021Z,4.63
2018-01-18T19:46:31.643Z,3.73
2018-01-18T19:48:59.979Z,3.33
2018-01-18T19:51:27.544Z,3.80
2018-01-18T19:53:55.080Z,3.70
2018-01-18T19:56:22.650Z,2.33
2018-01-18T19:58:50.240Z,2.58
2018-01-18T20:01:17.813Z,2.22
2018-01-18T20:03:46.164Z,2.45
2018-01-18T20:06:13.728Z,3.10
2018-01-18T20:08:41.317Z,3.77
2018-01-18T20:11:09.657Z,3.35
2018-01-18T20:13:37.199Z,2.37
2018-01-18T20:16:04.722Z,3.70
2018-01-18T20:18:33.085Z,3.73
2018-01-18T20:21:00.601Z,1.83
2018-01-18T20:23:28.135Z,2.22
2018-01-18T20:25:55.675Z,2.80
2018-01-18T20:28:23.965Z,1.95
2018-01-18T20:30:51.507Z,1.75
2018-01-18T20:33:19.849Z,2.30
2018-01-18T20:35:47.430Z,2.33
2018-01-18T20:38:14.959Z,2.70
2018-01-18T20:40:42.556Z,5.03
2018-01-18T20:43:11.724Z,6.87
2018-01-18T20:45:39.302Z,2.28
2018-01-18T20:48:06.874Z,1.50
2018-01-18T20:50:34.455Z,1.75
2018-01-18T20:53:02.743Z,2.30
2018-01-18T20:55:30.312Z,3.90
2018-01-18T20:57:57.855Z,3.08
2018-01-18T21:00:26.189Z,3.00
2018-01-18T21:02:53.783Z,2.50
2018-01-18T21:05:22.070Z,3.33
2018-01-18T21:07:50.367Z,2.97
2018-01-18T21:10:17.894Z,2.43
2018-01-18T21:12:45.432Z,2.20
2018-01-18T21:15:12.988Z,2.57
2018-01-18T21:17:40.574Z,2.20
2018-01-18T21:20:08.137Z,1.93
2018-01-18T21:22:35.652Z,1.90
2018-01-18T21:25:03.228Z,2.10
2018-01-18T21:27:30.787Z,13.20
2018-01-18T21:29:58.376Z,18.57
2018-01-18T21:32:25.901Z,14.20
2018-01-18T21:34:53.441Z,4.10
2018-01-18T21:37:20.953Z,3.23
2018-01-18T21:39:48.485Z,2.47
2018-01-18T21:42:16.002Z,2.03
2018-01-18T21:44:43.545Z,1.70
2018-01-18T21:47:11.830Z,1.30
2018-01-18T21:49:40.116Z,1.62
2018-01-18T21:52:07.706Z,1.73
2018-01-18T21:54:35.228Z,1.48
2018-01-18T21:57:03.540Z,1.40
2018-01-18T21:59:31.050Z,1.07
2018-01-18T22:01:58.641Z,1.70
2018-01-18T22:04:26.206Z,1.55
2018-01-18T22:06:53.766Z,1.70
2018-01-18T22:09:21.322Z,2.05
2018-01-18T22:11:48.877Z,1.48
2018-01-18T22:14:16.413Z,1.70
2018-01-18T22:16:43.923Z,1.83
2018-01-18T22:19:11.458Z,1.42
2018-01-18T22:21:39.015Z,1.30
2018-01-18T22:24:07.310Z,1.30
2018-01-18T22:26:34.872Z,1.20
2018-01-18T22:29:02.394Z,1.30
2018-01-18T22:31:30.702Z,1.45
2018-01-18T22:33:58.220Z,1.92
2018-01-18T22:36:25.810Z,2.50
2018-01-18T22:38:54.093Z,1.90
2018-01-18T22:41:21.637Z,2.15
2018-01-18T22:43:49.927Z,1.65
2018-01-18T22:46:17.454Z,1.48
2018-01-18T22:48:44.993Z,1.40
2018-01-18T22:51:12.522Z,1.50
2018-01-18T22:53:40.058Z,1.30
2018-01-18T22:56:08.342Z,1.10
2018-01-18T22:58:35.877Z,1.15
2018-01-18T23:01:03.400Z,1.50
2018-01-18T23:03:30.941Z,1.42
2018-01-18T23:05:58.462Z,1.20
2018-01-18T23:08:26.749Z,1.23
2018-01-18T23:10:55.057Z,1.10
2018-01-18T23:13:22.577Z,1.17
2018-01-18T23:15:50.881Z,1.00
2018-01-18T23:18:18.400Z,1.20
2018-01-18T23:20:45.938Z,1.50
2018-01-18T23:23:13.453Z,1.70
2018-01-18T23:25:40.995Z,1.15
2018-01-18T23:28:09.277Z,1.00
2018-01-18T23:30:37.599Z,1.27
2018-01-18T23:33:05.118Z,1.50
2018-01-18T23:35:33.442Z,1.05
2018-01-18T23:38:00.961Z,1.58
2018-01-18T23:40:29.249Z,1.80
2018-01-18T23:42:56.786Z,1.50
2018-01-18T23:45:25.074Z,1.73
2018-01-18T23:47:53.377Z,2.45
2018-01-18T23:50:20.901Z,3.08
2018-01-18T23:52:49.243Z,2.10
2018-01-18T23:55:16.766Z,1.95
2018-01-18T23:57:44.280Z,2.90
